This is the latest recevied weather packets stored in our database for station/object 9M2SES-13. If no packets are shown the sender has not sent any weather packets the latest 1 day(s).
| Time | Temp. | Humidity | Pressure | Rain* | Wind** | Luminosity | Snow |
|---|---|---|---|---|---|---|---|
| 1778051161 | 30.56° C | 95% | - | 0 mm | 17.43 m/s, 180° | 0 W/m² | - |
| 1778049359 | 31.67° C | 95% | - | 0 mm | 31.74 m/s, 180° | 0 W/m² | - |
| 1778048758 | 32.78° C | 72% | - | 0 mm | 17.43 m/s, 90° | 0 W/m² | - |
| 1778047557 | 35° C | 16% | - | 0 mm | 6.71 m/s, 90° | 0 W/m² | - |
| 1778046956 | 33.89° C | 24% | - | 0 mm | 6.71 m/s, 180° | 0 W/m² | - |
| 1778045755 | 33.89° C | 19% | - | 0 mm | 3.13 m/s, 180° | 0 W/m² | - |
| 1778045154 | 33.89° C | 47% | - | 0 mm | 13.86 m/s, 180° | 0 W/m² | - |
| 1778044554 | 32.78° C | 55% | - | 0 mm | 3.13 m/s, 0° | 0 W/m² | - |
| 1778043952 | 33.89° C | 11% | - | 0 mm | 6.71 m/s, 0° | 0 W/m² | - |
| 1778042751 | 35° C | 10% | - | 0 mm | 0 m/s | 0 W/m² | - |
| 1778042151 | 35° C | 24% | - | 0 mm | 10.28 m/s, 0° | 0 W/m² | - |
| 1778041550 | 32.78° C | 46% | - | 0 mm | 3.13 m/s, 180° | 0 W/m² | - |
| 1778040348 | 31.67° C | 71% | - | 0 mm | 0 m/s | 0 W/m² | - |
| 1778039748 | 31.67° C | 95% | - | 0 mm | 3.13 m/s, 180° | 0 W/m² | - |
| 1778039147 | 31.67° C | 95% | - | 0 mm | 3.13 m/s, 180° | 0 W/m² | - |
| 1778037945 | 32.78° C | 95% | - | 0 mm | 10.28 m/s, 180° | 0 W/m² | - |
| 1778037344 | 30.56° C | 95% | - | 0 mm | 6.71 m/s, 180° | 0 W/m² | - |
| 1778036743 | 31.67° C | 95% | - | 0 mm | 6.71 m/s, 180° | 0 W/m² | - |
| 1778035541 | 32.78° C | 95% | - | 0 mm | 3.13 m/s, 315° | 0 W/m² | - |
| 1778034940 | 33.89° C | 94% | - | 0 mm | 3.13 m/s, 315° | 0 W/m² | - |
| 1778034340 | 32.78° C | 95% | - | 0 mm | 3.13 m/s, 315° | 0 W/m² | - |
| 1778033739 | 31.67° C | 95% | - | 0 mm | 0 m/s | 0 W/m² | - |
| 1778033139 | 30.56° C | 95% | - | 0 mm | 0 m/s | 0 W/m² | - |
| 1778032538 | 30° C | 95% | - | 0 mm | 6.71 m/s, 180° | 0 W/m² | - |
| 1778031337 | 30° C | 95% | - | 0 mm | 6.71 m/s, 180° | 0 W/m² | - |
* Rain latest hour (hover to see other rain measurements)
** Current wind speed in m/s (hover to see current wind gust speed)